Главная страница
METAR-TAF:

METAR-TAF

Аэропорты :

Курессааре, Эстония

широта: 58-13-48N, долгота: 022-30-34E, высота над уровнем моря: 4 м

Текущие метеонаблюдения

Эта сводка был подготовлена 19 минут назад, в 19:20 UTC
Ветер 4 Узел от южный-юго-западный
Температура 13°C
Влажность 82%
Давление 1015 hPa
Видимость 10 км и более
небольшая облачность на высоте 4900 фута

METAR: EEKE 131920Z AUTO 20004KT 9999NDV FEW049 13/10 Q1015

Время: 22:39 (19:39 UTC)

Прогноз

Эта сводка был подготовлена 5 часа и 39 минут назад, в 14:00 UTC
Прогноз действительный с 13-го 15 UTC до 13-го 21 UTC
Ветер 8 Узел от западный-юго-западный
Видимость 10 км и более
Отдельные облака на высоте 3000 фута
временами
С 13-го 15 UTC до 13-го 21 UTC
Отдельные облака на высоте 2500 фута, Кучево-дождевые.
Вероятность 40% :
временами
С 13-го 17 UTC до 13-го 21 UTC
Видимость: 4000 м
ливневые дожди,

TAF: EEKE 131400Z 1315/1321 24008KT 9999 SCT030 TEMPO 1315/1321 SCT025CB PROB40 TEMPO 1317/1321 4000 SHRA

Метеонаблюдения и прогнозы для более 4000 аэропортов (сводки METAR и TAF).

Имеющиеся станции представлены на карте желтыми и красными точками.

Чтобы увидеть название станции, наведите на нее мышь.

Затем щелкните, чтобы увидеть метеонаблюдения и метеопрогнозы.

Управление картой: чтобы увеличить масштаб, щелкните зеленые кнопки с черным крестиком; чтобы уменьшить масштаб, щелкните зеленую кнопку с тире; для просмотра соседних карт щелкайте зеленые стрелки.


METAR-TAF: